Time;durP1;ratioP1;P1;durP2;ratioP2;P2;SDS_P1;SDS_P2;PMS_P1;PMS_P2;Temp;Humidity;BMP_temperature;BMP_pressure;BME280_temperature;BME280_humidity;BME280_pressure;Samples;Min_cycle;Max_cycle;Signal;HPM_P1;HPM_P2
2022/07/01 00:00:13;;;;;;;5.28;3.15;;;;;;;27.52;96.05;99909.31;5113487;28;20673;-69
2022/07/01 00:02:41;;;;;;;8.10;2.88;;;;;;;27.54;95.27;99918.06;5113278;28;20198;-68
2022/07/01 00:05:08;;;;;;;5.32;2.85;;;;;;;26.54;93.02;99740.94;5113670;28;20202;-68
2022/07/01 00:07:35;;;;;;;6.25;3.50;;;;;;;27.56;90.79;99910.88;5113545;28;20206;-68
2022/07/01 00:10:02;;;;;;;9.35;2.60;;;;;;;27.50;90.64;99887.25;5113105;28;20273;-68
2022/07/01 00:12:29;;;;;;;6.40;2.72;;;;;;;27.56;89.86;99900.22;5113210;28;20201;-68
2022/07/01 00:14:56;;;;;;;12.38;3.28;;;;;;;27.64;87.33;99897.09;5113586;28;20197;-68
2022/07/01 00:17:23;;;;;;;8.20;3.00;;;;;;;27.83;85.27;99917.25;5094275;28;20198;-68
2022/07/01 00:19:51;;;;;;;4.82;2.75;;;;;;;28.00;81.01;99926.94;5113644;28;20197;-68
2022/07/01 00:22:18;;;;;;;3.72;2.45;;;;;;;27.96;80.65;99928.94;5113328;28;20208;-68
2022/07/01 00:24:48;;;;;;;5.60;2.78;;;;;;;27.89;80.25;99924.06;5113178;28;20676;-68
2022/07/01 00:27:15;;;;;;;8.63;3.13;;;;;;;27.91;90.29;99928.34;5113277;28;20228;-68
2022/07/01 00:29:42;;;;;;;5.82;3.05;;;;;;;27.79;91.67;99913.03;5113108;28;20217;-68
2022/07/01 00:32:09;;;;;;;5.15;2.72;;;;;;;27.78;93.99;99916.69;5113408;28;20213;-68
2022/07/01 00:34:35;;;;;;;5.05;3.00;;;;;;;27.67;94.61;99897.78;5113113;28;20201;-68
2022/07/01 00:37:04;;;;;;;4.18;3.30;;;;;;;27.79;93.76;99909.53;5112553;28;20262;-68
2022/07/01 00:39:33;;;;;;;4.15;2.97;;;;;;;27.68;93.54;99890.66;5113020;28;20204;-68
2022/07/01 00:42:01;;;;;;;4.07;2.75;;;;;;;27.73;91.24;99916.06;5077656;28;20198;-69
2022/07/01 00:44:28;;;;;;;5.78;3.55;;;;;;;27.32;94.38;99851.84;5113057;28;20201;-68
2022/07/01 00:46:55;;;;;;;6.90;3.10;;;;;;;27.63;96.04;99906.91;5113122;28;20212;-68
2022/07/01 00:49:23;;;;;;;10.23;3.20;;;;;;;27.68;96.06;99915.50;5073075;28;20221;-68
2022/07/01 00:51:50;;;;;;;11.27;2.90;;;;;;;27.28;99.49;99921.34;5092564;28;20206;-68
2022/07/01 00:54:18;;;;;;;5.95;2.85;;;;;;;27.35;100.00;99917.38;5092588;28;20201;-68
2022/07/01 00:56:46;;;;;;;9.60;2.95;;;;;;;27.23;100.00;99912.75;5108659;28;20197;-68
2022/07/01 00:59:13;;;;;;;8.98;3.35;;;;;;;27.09;100.00;99894.88;5112651;28;20185;-69
2022/07/01 01:01:40;;;;;;;5.28;3.15;;;;;;;27.01;100.00;99905.09;5112330;28;20208;-69
2022/07/01 01:04:07;;;;;;;5.93;3.10;;;;;;;26.82;100.00;99897.28;5111373;28;20190;-69
2022/07/01 01:06:35;;;;;;;6.22;3.05;;;;;;;26.72;100.00;99898.66;5112498;28;20205;-68
2022/07/01 01:09:01;;;;;;;7.35;2.90;;;;;;;26.65;100.00;99905.25;5112420;28;20225;-68
2022/07/01 01:11:31;;;;;;;3.30;3.00;;;;;;;26.39;100.00;99881.84;5112667;28;20193;-68
2022/07/01 01:13:58;;;;;;;4.63;3.10;;;;;;;26.42;100.00;99895.00;5112192;28;20331;-68
2022/07/01 01:16:26;;;;;;;3.40;3.10;;;;;;;26.23;100.00;99876.47;5112115;28;20208;-69
2022/07/01 01:18:53;;;;;;;6.50;3.30;;;;;;;26.34;100.00;99915.78;5043180;28;20201;-69
2022/07/01 01:21:21;;;;;;;6.43;3.25;;;;;;;26.24;100.00;99893.28;5112431;28;20199;-69
2022/07/01 01:23:48;;;;;;;7.00;2.85;;;;;;;26.30;100.00;99916.88;5112277;28;20194;-69
2022/07/01 01:26:20;;;;;;;4.05;2.90;;;;;;;26.32;100.00;99923.00;5112033;28;20200;-69
2022/07/01 01:28:47;;;;;;;9.88;3.17;;;;;;;26.03;100.00;99917.34;5111817;28;20224;-69
2022/07/01 01:31:14;;;;;;;9.48;3.03;;;;;;;25.85;100.00;99923.59;5111499;28;20222;-69
2022/07/01 01:33:41;;;;;;;3.97;2.92;;;;;;;25.68;100.00;99939.53;5112299;28;20212;-69
2022/07/01 01:36:08;;;;;;;2.70;2.50;;;;;;;25.67;100.00;99937.78;5112261;28;20209;-69
2022/07/01 01:38:38;;;;;;;3.72;3.38;;;;;;;25.49;100.00;99942.16;5111139;28;20205;-69
2022/07/01 01:41:05;;;;;;;6.43;3.20;;;;;;;25.23;100.00;99934.56;5111595;28;20204;-69
2022/07/01 01:43:34;;;;;;;5.35;3.53;;;;;;;24.98;100.00;99936.66;5111728;28;20558;-68
2022/07/01 01:46:02;;;;;;;5.22;3.10;;;;;;;24.76;100.00;99934.09;5112062;28;20227;-69
2022/07/01 01:48:29;;;;;;;11.32;3.28;;;;;;;24.84;100.00;99942.59;5111812;28;20278;-69
2022/07/01 01:50:56;;;;;;;4.35;3.15;;;;;;;24.79;100.00;99938.41;5111752;28;20198;-68
2022/07/01 01:53:24;;;;;;;6.18;3.13;;;;;;;24.76;100.00;99942.03;5111736;28;20198;-69
2022/07/01 01:55:52;;;;;;;5.00;3.53;;;;;;;24.78;100.00;99936.69;5111970;28;20680;-69
2022/07/01 01:58:20;;;;;;;4.82;3.35;;;;;;;24.83;100.00;99940.88;5111475;28;20285;-69
2022/07/01 02:00:46;;;;;;;13.95;3.50;;;;;;;24.84;100.00;99937.28;5109172;28;20248;-69
2022/07/01 02:03:13;;;;;;;6.60;3.20;;;;;;;24.83;100.00;99935.56;5111733;28;20216;-69
2022/07/01 02:05:40;;;;;;;9.15;3.78;;;;;;;24.75;100.00;99916.47;5111692;28;20598;-69
2022/07/01 02:08:07;;;;;;;6.85;3.10;;;;;;;24.79;100.00;99928.66;5092457;28;20204;-69
2022/07/01 02:10:34;;;;;;;5.55;3.25;;;;;;;24.90;100.00;99928.22;5111618;28;20266;-69
2022/07/01 02:13:02;;;;;;;3.17;2.97;;;;;;;24.92;100.00;99929.84;5092103;28;20190;-69
2022/07/01 02:15:30;;;;;;;8.20;3.60;;;;;;;24.93;100.00;99930.72;5111701;28;20201;-69
2022/07/01 02:17:57;;;;;;;6.85;3.60;;;;;;;24.89;100.00;99919.38;5111596;28;20665;-69
2022/07/01 02:20:24;;;;;;;13.30;3.30;;;;;;;24.91;100.00;99932.56;5092194;28;20200;-69
2022/07/01 02:22:52;;;;;;;4.97;4.00;;;;;;;24.83;100.00;99940.00;5111400;28;20567;-69
2022/07/01 02:25:20;;;;;;;6.82;3.50;;;;;;;24.84;100.00;99942.59;5075966;28;20645;-69
2022/07/01 02:27:47;;;;;;;7.82;3.92;;;;;;;24.84;100.00;99947.91;5110223;28;20246;-69
2022/07/01 02:30:15;;;;;;;5.68;3.63;;;;;;;24.93;100.00;99936.88;5075361;28;20734;-69
2022/07/01 02:32:42;;;;;;;6.75;3.50;;;;;;;24.77;100.00;99946.41;5111459;28;20200;-69
2022/07/01 02:35:10;;;;;;;7.18;4.03;;;;;;;24.80;100.00;99951.59;5111614;28;20251;-69
2022/07/01 02:37:37;;;;;;;8.02;4.47;;;;;;;24.80;100.00;99951.59;5075305;28;20204;-69
2022/07/01 02:40:05;;;;;;;10.30;4.80;;;;;;;24.87;100.00;99957.50;5110862;28;20194;-69
2022/07/01 02:42:35;;;;;;;15.65;5.20;;;;;;;24.66;100.00;99956.66;5092095;28;20222;-69
2022/07/01 02:45:03;;;;;;;17.65;6.45;;;;;;;24.64;100.00;99939.97;5111246;28;20306;-69
2022/07/01 02:47:35;;;;;;;27.48;5.82;;;;;;;24.81;100.00;99945.34;5111538;28;20270;-69
2022/07/01 02:50:03;;;;;;;13.57;5.65;;;;;;;24.75;100.00;99952.75;5114900;28;20225;-69
2022/07/01 02:52:30;;;;;;;11.70;5.38;;;;;;;24.72;100.00;99931.66;5115040;28;20204;-69
2022/07/01 02:54:57;;;;;;;18.67;5.45;;;;;;;24.69;100.00;99941.47;5114689;28;20629;-69
2022/07/01 02:57:24;;;;;;;20.60;5.88;;;;;;;24.81;100.00;99947.16;5114318;28;20198;-69
2022/07/01 02:59:51;;;;;;;16.73;5.63;;;;;;;24.82;100.00;99965.66;5114188;28;20591;-69
2022/07/01 03:02:19;;;;;;;21.52;6.82;;;;;;;24.77;100.00;99956.16;5114765;28;20221;-69
2022/07/01 03:04:47;;;;;;;16.10;5.88;;;;;;;24.82;100.00;99976.28;5115042;28;20219;-68
2022/07/01 03:07:14;;;;;;;17.98;6.03;;;;;;;24.74;100.00;99989.00;5113822;28;20197;-69
2022/07/01 03:09:41;;;;;;;18.58;6.30;;;;;;;24.70;100.00;99979.44;5114904;28;20217;-69
2022/07/01 03:14:49;;;;;;;23.50;6.20;;;;;;;24.27;100.00;99930.09;5114752;28;20206;-69
2022/07/01 03:17:19;;;;;;;20.42;5.50;;;;;;;24.77;100.00;99967.63;5114198;28;20598;-69
2022/07/01 03:19:48;;;;;;;11.75;4.70;;;;;;;25.02;100.00;99955.03;5114042;28;20205;-70
2022/07/01 03:22:14;;;;;;;7.75;4.53;;;;;;;25.18;100.00;99963.97;5114264;28;20189;-69
2022/07/01 03:24:41;;;;;;;11.07;4.30;;;;;;;25.75;100.00;99975.47;5114785;28;20205;-69
2022/07/01 03:27:08;;;;;;;9.98;3.95;;;;;;;26.02;100.00;99974.09;5114557;28;20197;-69
2022/07/01 03:29:35;;;;;;;4.60;4.20;;;;;;;26.27;100.00;99988.84;5078387;28;20236;-68
2022/07/01 03:32:02;;;;;;;8.70;4.80;;;;;;;26.59;100.00;100001.34;5114442;28;20685;-69
2022/07/01 03:34:28;;;;;;;10.65;4.90;;;;;;;26.76;100.00;99982.69;5114233;28;20201;-69
2022/07/01 03:36:57;;;;;;;10.88;4.80;;;;;;;27.24;100.00;100000.53;5113718;28;20185;-69
2022/07/01 03:39:23;;;;;;;7.55;4.60;;;;;;;27.43;99.08;99997.72;5114097;28;20224;-69
2022/07/01 03:41:50;;;;;;;10.65;3.90;;;;;;;27.79;95.02;100006.31;5114441;28;20204;-69
2022/07/01 03:44:17;;;;;;;8.32;4.50;;;;;;;28.16;91.64;100005.09;5113984;28;20200;-69
2022/07/01 03:46:44;;;;;;;9.40;4.40;;;;;;;28.29;89.14;100005.25;5114213;28;20197;-69
2022/07/01 03:49:11;;;;;;;6.00;3.85;;;;;;;28.76;86.81;100013.94;5113782;28;20216;-69
2022/07/01 03:51:37;;;;;;;10.88;3.97;;;;;;;29.03;83.85;100020.28;5113455;28;20290;-68
2022/07/01 03:56:52;;;;;;;6.22;3.45;;;;;;;29.58;79.22;100002.59;5031200;28;20207;-70
2022/07/01 03:59:19;;;;;;;9.65;4.25;;;;;;;29.92;76.53;100003.03;5031238;28;20668;-69
2022/07/01 04:01:46;;;;;;;7.88;4.20;;;;;;;29.83;76.75;100010.75;4997294;28;20198;-69
2022/07/01 04:04:13;;;;;;;8.10;4.40;;;;;;;29.60;77.57;99984.66;5030538;28;20224;-69
2022/07/01 04:06:40;;;;;;;5.60;4.03;;;;;;;29.69;76.69;100011.63;5030627;28;20676;-69
2022/07/01 04:09:08;;;;;;;10.93;3.60;;;;;;;29.31;78.36;100015.91;5030798;28;20234;-68
2022/07/01 04:11:35;;;;;;;7.18;3.67;;;;;;;28.78;81.73;100012.06;5030958;28;20199;-69
2022/07/01 04:14:02;;;;;;;8.07;3.08;;;;;;;28.59;85.18;99998.06;5029036;28;20192;-72
2022/07/01 04:16:29;;;;;;;5.15;3.70;;;;;;;28.83;82.60;100012.63;5030726;28;20196;-70
2022/07/01 04:18:56;;;;;;;9.52;3.72;;;;;;;29.41;80.20;100019.72;5030808;28;20210;-69
2022/07/01 04:24:08;;;;;;;8.55;3.70;;;;;;;30.37;73.14;100019.63;5030366;28;20287;-70
2022/07/01 04:26:35;;;;;;;6.07;3.35;;;;;;;30.41;70.56;100030.06;4997631;28;20208;-70
2022/07/01 04:29:02;;;;;;;4.95;3.40;;;;;;;30.79;67.63;100008.69;5029968;28;20211;-70
2022/07/01 04:31:29;;;;;;;9.35;3.40;;;;;;;31.00;65.98;100019.75;5030231;28;20781;-72
2022/07/01 04:33:56;;;;;;;7.65;3.22;;;;;;;31.32;65.38;100037.06;5061971;28;20670;-71
2022/07/01 04:36:23;;;;;;;4.32;3.22;;;;;;;31.79;63.19;100014.03;5070153;28;20636;-71
2022/07/01 04:38:50;;;;;;;18.73;3.72;;;;;;;32.29;60.55;100023.72;5076980;28;20204;-71
2022/07/01 04:44:03;;;;;;;5.93;3.50;;;;;;;33.28;56.92;100030.34;5112760;28;20212;-69
2022/07/01 04:46:30;;;;;;;4.97;3.10;;;;;;;33.62;55.14;100040.13;5113168;28;20192;-69
2022/07/01 04:48:57;;;;;;;6.82;3.15;;;;;;;34.05;53.21;100028.50;5112928;28;20204;-69
2022/07/01 04:51:24;;;;;;;6.15;3.25;;;;;;;34.58;51.39;100034.78;5112240;28;20203;-69
2022/07/01 04:53:50;;;;;;;11.70;3.40;;;;;;;34.84;50.18;100034.31;5093345;28;20189;-69
2022/07/01 04:56:19;;;;;;;12.00;3.60;;;;;;;34.98;49.88;100043.91;5112095;28;20204;-70
2022/07/01 04:58:46;;;;;;;12.50;3.70;;;;;;;34.82;49.90;100028.19;5112823;28;20189;-69
2022/07/01 05:01:13;;;;;;;7.28;3.10;;;;;;;35.02;49.19;100055.25;5076941;28;20211;-69
2022/07/01 05:03:40;;;;;;;13.80;3.42;;;;;;;34.51;48.99;100047.94;5112417;28;20262;-69
2022/07/01 05:06:07;;;;;;;10.90;3.00;;;;;;;34.22;49.25;100060.28;5112207;28;20189;-70
2022/07/01 05:08:34;;;;;;;8.35;3.00;;;;;;;33.43;51.42;100065.91;5111423;28;20720;-68
2022/07/01 05:11:00;;;;;;;8.77;3.08;;;;;;;34.03;50.71;100027.81;5112279;28;20231;-69
2022/07/01 05:13:28;;;;;;;5.55;2.97;;;;;;;34.68;49.46;100051.91;5110960;28;20193;-68
2022/07/01 05:15:55;;;;;;;13.00;3.50;;;;;;;35.03;48.63;100046.19;5112347;28;20585;-69
2022/07/01 05:23:50;;;;;;;8.88;3.72;;;;;;;36.42;44.92;100039.00;5112359;28;20208;-70
2022/07/01 05:26:17;;;;;;;6.32;3.33;;;;;;;35.78;45.44;100047.53;5111078;28;20200;-69
2022/07/01 05:28:46;;;;;;;5.35;3.30;;;;;;;35.19;47.17;100049.28;5110652;28;20197;-70
2022/07/01 05:31:13;;;;;;;12.68;3.13;;;;;;;34.31;49.10;100046.09;5091116;28;20233;-69
2022/07/01 05:33:43;;;;;;;3.92;3.53;;;;;;;33.73;50.92;100050.00;5093865;28;20205;-70
2022/07/01 05:36:10;;;;;;;14.40;3.95;;;;;;;32.83;54.10;100048.19;5096101;28;20204;-74
2022/07/01 05:38:37;;;;;;;22.33;4.88;;;;;;;31.99;59.83;100056.38;5093127;28;20197;-74
2022/07/01 05:41:04;;;;;;;15.20;3.72;;;;;;;31.64;63.27;100060.78;5104153;28;20196;-74
2022/07/01 05:43:31;;;;;;;11.27;3.70;;;;;;;31.96;63.94;100054.75;5105266;28;20201;-74
2022/07/01 05:46:00;;;;;;;9.25;4.15;;;;;;;32.36;61.70;100057.16;5109008;28;20224;-68
2022/07/01 05:48:26;;;;;;;6.75;4.03;;;;;;;32.54;61.98;100049.53;5091713;28;20235;-69
2022/07/01 05:50:54;;;;;;;8.35;4.20;;;;;;;31.51;66.46;100051.84;5091446;28;20719;-68
2022/07/01 05:53:21;;;;;;;8.32;4.00;;;;;;;31.62;68.17;100066.22;5098415;28;20241;-66
2022/07/01 05:55:48;;;;;;;10.30;4.70;;;;;;;31.88;67.59;100069.72;5111796;28;20679;-67
2022/07/01 05:58:15;;;;;;;13.18;5.60;;;;;;;32.09;66.66;100075.34;5106264;28;20189;-68
2022/07/01 06:00:43;;;;;;;12.23;4.70;;;;;;;31.52;68.82;100075.91;5108179;28;20204;-68
2022/07/01 06:03:12;;;;;;;10.38;4.90;;;;;;;30.79;72.54;100075.63;5108474;28;20197;-69
2022/07/01 06:05:39;;;;;;;17.58;5.28;;;;;;;30.55;75.53;100082.66;5107683;28;20252;-69
2022/07/01 06:08:06;;;;;;;11.13;5.18;;;;;;;30.58;76.65;100073.53;5111663;28;20204;-69
2022/07/01 06:10:33;;;;;;;8.07;4.60;;;;;;;30.21;75.62;100061.75;5111408;28;20225;-69
2022/07/01 06:13:00;;;;;;;10.27;4.28;;;;;;;29.23;83.29;100093.81;5111581;28;20193;-69
2022/07/01 06:15:28;;;;;;;12.43;3.83;;;;;;;28.14;91.41;100079.00;5108509;28;20299;-68
2022/07/01 06:17:55;;;;;;;16.20;5.57;;;;;;;28.06;93.10;100065.22;5096513;28;20193;-69
2022/07/01 06:20:23;;;;;;;12.00;4.18;;;;;;;28.06;94.83;100098.06;5111430;28;20201;-69
2022/07/01 06:22:50;;;;;;;8.48;4.55;;;;;;;28.51;91.33;100091.06;5103554;28;20213;-68
2022/07/01 06:25:17;;;;;;;8.98;4.30;;;;;;;29.10;88.00;100102.69;5099571;28;20280;-70
2022/07/01 06:27:45;;;;;;;6.93;4.72;;;;;;;29.65;83.89;100110.81;5111500;28;20201;-69
2022/07/01 06:30:13;;;;;;;5.65;4.18;;;;;;;30.24;80.08;100097.19;5110894;28;20328;-69
2022/07/01 06:32:40;;;;;;;7.85;4.40;;;;;;;30.47;78.86;100091.19;5111331;28;20585;-68
2022/07/01 06:35:07;;;;;;;5.72;4.68;;;;;;;30.99;75.77;100093.03;5111094;28;20205;-72
2022/07/01 06:37:36;;;;;;;51.30;7.03;;;;;;;31.24;74.39;100078.81;5111034;28;20293;-72
2022/07/01 06:40:03;;;;;;;16.02;5.03;;;;;;;30.85;74.82;100095.78;5111449;28;20212;-69
2022/07/01 06:42:30;;;;;;;10.90;4.28;;;;;;;31.50;73.81;100093.88;5098054;28;20197;-68
2022/07/01 06:44:57;;;;;;;9.55;4.50;;;;;;;31.58;73.08;100078.13;5111465;28;20288;-70
2022/07/01 06:47:24;;;;;;;4.78;4.07;;;;;;;31.98;71.16;100080.59;5110974;28;20271;-70
2022/07/01 06:49:51;;;;;;;10.43;4.93;;;;;;;32.25;70.07;100082.13;5110932;28;20240;-70
2022/07/01 06:52:18;;;;;;;11.32;4.30;;;;;;;31.92;70.46;100064.00;5110172;28;20211;-69
2022/07/01 06:54:46;;;;;;;12.10;3.75;;;;;;;31.36;75.17;100043.94;5097394;28;20189;-69
2022/07/01 06:57:13;;;;;;;10.25;4.25;;;;;;;31.12;77.77;100068.94;5110878;28;20932;-69
2022/07/01 06:59:40;;;;;;;5.00;4.03;;;;;;;30.39;81.68;100044.47;5110490;28;20200;-68
2022/07/01 07:02:07;;;;;;;5.05;3.90;;;;;;;30.70;82.26;100073.59;5108443;28;20197;-70
2022/07/01 07:04:34;;;;;;;11.63;3.90;;;;;;;31.09;83.67;100058.44;5103825;28;20221;-71
2022/07/01 07:07:01;;;;;;;10.90;4.20;;;;;;;30.85;80.14;100072.53;5093400;28;20255;-74
2022/07/01 07:09:28;;;;;;;14.18;3.75;;;;;;;31.14;79.30;100061.66;5106510;28;20739;-72
2022/07/01 07:11:56;;;;;;;10.52;3.92;;;;;;;31.39;77.24;100070.50;5099546;28;20220;-69
2022/07/01 07:14:23;;;;;;;8.27;3.60;;;;;;;31.70;76.88;100066.53;5095712;28;20193;-69
2022/07/01 07:16:53;;;;;;;10.93;3.58;;;;;;;31.60;74.50;100073.53;5091348;28;20554;-70
2022/07/01 07:19:20;;;;;;;3.95;3.50;;;;;;;32.04;75.84;100066.72;5091870;28;20205;-77
2022/07/01 07:21:47;;;;;;;5.85;3.60;;;;;;;32.40;72.50;100072.94;5090528;28;20201;-69
2022/07/01 07:24:13;;;;;;;6.63;3.40;;;;;;;32.56;73.97;100061.91;5093735;28;20194;-72
2022/07/01 07:26:40;;;;;;;14.13;3.55;;;;;;;32.22;70.21;100071.63;5094249;28;20674;-71
2022/07/01 07:29:08;;;;;;;5.75;3.40;;;;;;;32.11;67.50;100052.78;5092151;28;20204;-71
2022/07/01 07:31:35;;;;;;;7.95;4.25;;;;;;;32.55;70.20;100076.28;5109621;28;20643;-71
2022/07/01 07:34:03;;;;;;;26.50;5.05;;;;;;;32.71;70.38;100084.09;5110777;28;20196;-71
2022/07/01 07:36:29;;;;;;;12.23;5.45;;;;;;;33.11;70.39;100071.97;5112989;28;20760;-70
2022/07/01 07:38:56;;;;;;;28.00;5.60;;;;;;;32.86;71.36;100089.13;5097208;28;20201;-67
2022/07/01 07:41:23;;;;;;;26.92;5.38;;;;;;;32.91;71.25;100091.47;5058552;28;20201;-71
2022/07/01 07:43:50;;;;;;;20.40;6.13;;;;;;;32.68;74.06;100085.16;5093946;28;20209;-71
2022/07/01 07:46:18;;;;;;;19.77;5.30;;;;;;;32.72;74.25;100069.66;5081981;28;20205;-71
2022/07/01 07:48:45;;;;;;;18.48;5.15;;;;;;;33.01;72.97;100092.44;5100790;28;20198;-67
2022/07/01 07:51:15;;;;;;;25.58;5.65;;;;;;;33.09;70.96;100099.91;5100966;28;20225;-68
2022/07/01 07:53:42;;;;;;;16.00;5.57;;;;;;;32.56;75.38;100087.91;5106134;28;20288;-68
2022/07/01 07:56:09;;;;;;;11.60;5.47;;;;;;;31.78;76.13;100076.72;5113752;27;20201;-68
2022/07/01 07:58:36;;;;;;;23.35;6.22;;;;;;;31.33;79.99;100091.53;5113991;28;20211;-68
2022/07/01 08:01:02;;;;;;;18.45;7.00;;;;;;;31.01;80.65;100084.88;5113815;28;20205;-67
2022/07/01 08:03:31;;;;;;;23.17;7.88;;;;;;;31.50;82.04;100079.63;5113953;28;20193;-69
2022/07/01 08:05:57;;;;;;;30.55;8.02;;;;;;;32.10;78.13;100085.13;5113737;28;20212;-69
2022/07/01 08:08:24;;;;;;;21.20;6.40;;;;;;;32.12;78.33;100077.78;5113799;28;20193;-69
2022/07/01 08:10:51;;;;;;;15.10;5.55;;;;;;;32.28;77.78;100048.88;5113734;28;20580;-69
2022/07/01 08:13:18;;;;;;;11.80;5.47;;;;;;;32.59;75.41;100063.53;5113531;28;20567;-68
2022/07/01 08:15:45;;;;;;;12.50;4.68;;;;;;;32.81;75.92;100079.72;5113634;28;20208;-69
2022/07/01 08:18:12;;;;;;;9.98;4.65;;;;;;;32.68;73.86;100085.16;5111824;28;20197;-69
2022/07/01 08:20:40;;;;;;;8.57;3.72;;;;;;;33.21;70.29;100091.78;5113792;28;20205;-68
2022/07/01 08:23:07;;;;;;;8.48;4.22;;;;;;;33.26;67.00;100096.78;5113375;28;20200;-69
2022/07/01 08:25:34;;;;;;;7.95;3.70;;;;;;;33.21;67.65;100074.81;5113555;28;20193;-68
2022/07/01 08:28:00;;;;;;;11.70;4.50;;;;;;;33.14;67.65;100092.41;5113171;28;20220;-69
2022/07/01 08:30:27;;;;;;;5.07;3.95;;;;;;;33.33;65.17;100098.03;5112686;28;20228;-68
2022/07/01 08:32:54;;;;;;;9.68;4.18;;;;;;;32.62;65.12;100037.28;5076744;28;20211;-69
2022/07/01 08:35:21;;;;;;;10.00;4.00;;;;;;;32.93;64.75;100084.13;5112646;28;20201;-68
2022/07/01 08:37:49;;;;;;;10.32;3.83;;;;;;;33.03;64.31;100090.53;5105327;28;20220;-69
2022/07/01 08:40:16;;;;;;;4.45;3.75;;;;;;;32.93;64.86;100087.66;5106192;28;20205;-69
2022/07/01 08:42:43;;;;;;;9.30;4.07;;;;;;;33.05;64.19;100090.38;5092621;28;20615;-68
2022/07/01 08:45:10;;;;;;;8.82;3.80;;;;;;;33.02;63.97;100099.53;5100981;28;20719;-67
2022/07/01 08:47:50;;;;;;;7.20;3.78;;;;;;;32.96;64.83;100083.91;5094446;28;20205;-69
2022/07/01 08:50:17;;;;;;;10.07;4.63;;;;;;;33.09;66.07;100081.97;5098882;28;20258;-68
2022/07/01 08:52:44;;;;;;;4.85;3.50;;;;;;;33.33;64.36;100087.28;5112737;28;20197;-68
2022/07/01 08:55:13;;;;;;;6.90;3.80;;;;;;;33.24;64.64;100082.63;5112792;28;20201;-68
2022/07/01 08:57:40;;;;;;;6.63;4.03;;;;;;;32.92;63.21;100039.44;5090334;28;20192;-69
2022/07/01 09:00:08;;;;;;;3.67;3.38;;;;;;;33.60;60.23;100079.72;5112420;28;20212;-68
2022/07/01 09:02:57;;;;;;;6.05;3.90;;;;;;;33.61;59.88;100083.22;5110571;28;20249;-68
2022/07/01 09:05:26;;;;;;;6.20;4.13;;;;;;;33.42;59.96;100086.56;5044306;28;20215;-68
2022/07/01 09:08:01;;;;;;;7.32;4.32;;;;;;;33.59;58.83;100088.75;5030909;28;20268;-68
2022/07/01 09:10:33;;;;;;;7.47;3.88;;;;;;;33.72;57.22;100083.25;5049241;28;20207;-68
2022/07/01 09:13:06;;;;;;;5.78;3.90;;;;;;;33.44;57.26;100076.53;5049594;28;20199;-68
2022/07/01 09:15:33;;;;;;;8.15;4.28;;;;;;;33.60;56.51;100077.03;5049652;28;20210;-68
2022/07/01 09:18:05;;;;;;;6.32;3.75;;;;;;;34.22;57.35;100088.06;5048840;28;20260;-68
2022/07/01 09:20:33;;;;;;;4.95;4.10;;;;;;;33.75;56.79;100093.75;5047001;28;20199;-67
2022/07/01 09:23:05;;;;;;;6.95;3.67;;;;;;;33.65;55.79;100082.91;5054344;28;20198;-67
2022/07/01 09:25:39;;;;;;;5.10;3.83;;;;;;;33.61;56.21;100086.78;5047134;28;20199;-66
2022/07/01 09:28:12;;;;;;;6.95;3.45;;;;;;;33.94;57.02;100087.75;5048969;28;20203;-67
2022/07/01 09:30:40;;;;;;;9.63;3.97;;;;;;;33.86;55.59;100083.84;5051224;28;20231;-66
2022/07/01 09:33:09;;;;;;;14.63;3.90;;;;;;;34.20;58.00;100062.28;5044974;28;20211;-66
2022/07/01 09:35:36;;;;;;;8.43;3.80;;;;;;;34.44;57.13;100076.38;5031163;28;20195;-67
2022/07/01 09:38:04;;;;;;;10.57;4.28;;;;;;;34.28;54.69;100073.28;5031705;28;20299;-66
2022/07/01 09:40:54;;;;;;;6.15;4.00;;;;;;;34.57;53.54;100068.97;5012924;28;20203;-66
2022/07/01 09:43:23;;;;;;;7.93;3.40;;;;;;;34.32;50.89;100056.69;5100791;28;20200;-66
2022/07/01 09:45:56;;;;;;;8.65;3.90;;;;;;;34.35;52.36;100042.97;5111916;28;20676;-67
2022/07/01 09:48:24;;;;;;;11.32;3.78;;;;;;;34.33;52.55;100057.56;5112180;28;20192;-67
2022/07/01 09:50:51;;;;;;;8.38;3.30;;;;;;;34.42;52.85;100054.13;5092681;28;20217;-67
2022/07/01 09:53:18;;;;;;;8.98;3.85;;;;;;;34.57;51.95;100054.66;5111954;28;20197;-67
2022/07/01 09:55:45;;;;;;;5.25;3.75;;;;;;;34.57;50.23;100031.25;5112269;28;20209;-67
2022/07/01 09:58:14;;;;;;;8.13;3.75;;;;;;;34.63;50.29;100049.63;5110717;28;20189;-67
2022/07/01 10:00:41;;;;;;;18.33;3.78;;;;;;;34.91;49.88;100049.94;5111833;28;20192;-67
2022/07/01 10:03:08;;;;;;;12.13;3.40;;;;;;;34.99;47.42;100047.44;5112066;28;20223;-69
2022/07/01 10:05:40;;;;;;;3.35;2.83;;;;;;;35.09;43.21;100056.44;5111364;28;20212;-68
2022/07/01 10:08:20;;;;;;;4.15;2.50;;;;;;;35.04;41.80;100053.28;5076049;28;20189;-69
2022/07/01 10:10:55;;;;;;;15.27;3.10;;;;;;;35.27;41.80;100047.63;5111359;28;20220;-67
2022/07/01 10:13:27;;;;;;;5.97;2.55;;;;;;;35.37;40.62;100050.38;5111921;28;20207;-67
2022/07/01 10:15:56;;;;;;;11.73;2.85;;;;;;;35.16;40.49;100046.84;5106401;28;20255;-67
2022/07/01 10:18:24;;;;;;;3.65;2.78;;;;;;;35.00;38.60;100043.75;5091257;28;20193;-67
2022/07/01 10:20:52;;;;;;;8.95;2.92;;;;;;;35.05;41.68;100044.22;5105156;28;20196;-67
2022/07/01 10:23:21;;;;;;;8.02;3.05;;;;;;;35.08;40.54;100041.25;5110861;28;20283;-66
2022/07/01 10:25:50;;;;;;;2.97;2.67;;;;;;;35.15;40.75;100040.59;5110324;28;20265;-67
2022/07/01 10:28:26;;;;;;;5.53;2.63;;;;;;;35.12;40.40;100026.53;5103870;28;20197;-67
2022/07/01 10:31:04;;;;;;;6.88;2.35;;;;;;;35.22;39.98;100017.50;5106597;28;20243;-67
2022/07/01 10:33:49;;;;;;;4.43;3.13;;;;;;;35.41;39.76;100030.22;5109290;28;20203;-67
2022/07/01 10:36:24;;;;;;;7.82;2.45;;;;;;;35.47;38.72;100036.91;5108674;28;20204;-67
2022/07/01 10:39:13;;;;;;;6.70;3.03;;;;;;;35.43;39.05;100020.13;5089403;28;20189;-66
2022/07/01 10:41:43;;;;;;;7.40;2.92;;;;;;;35.43;39.38;100009.34;5105667;28;20285;-67
2022/07/01 10:44:13;;;;;;;4.82;2.65;;;;;;;35.43;38.81;99995.88;5089725;28;20197;-67
2022/07/01 10:46:44;;;;;;;8.32;3.00;;;;;;;35.48;38.01;100017.91;5106833;28;20196;-67
2022/07/01 10:49:13;;;;;;;11.80;2.63;;;;;;;35.46;38.12;100019.84;5110197;28;20242;-67
2022/07/01 10:51:46;;;;;;;6.78;2.85;;;;;;;35.49;37.89;99995.34;5106643;28;20248;-67
2022/07/01 10:54:13;;;;;;;5.25;2.72;;;;;;;35.36;38.12;100016.28;5109943;28;20294;-66
2022/07/01 10:56:41;;;;;;;6.72;2.30;;;;;;;35.11;37.73;99954.69;5104426;28;20201;-67
2022/07/01 10:59:08;;;;;;;6.72;2.67;;;;;;;35.51;36.65;100014.06;5041057;28;20201;-67
2022/07/01 11:01:37;;;;;;;4.43;2.42;;;;;;;35.09;37.05;99932.44;5073490;28;20261;-67
2022/07/01 11:04:04;;;;;;;6.82;2.80;;;;;;;35.69;37.62;100007.91;5110266;28;20232;-67
2022/07/01 11:06:36;;;;;;;4.28;2.67;;;;;;;35.87;36.92;100009.91;5110481;28;20200;-66
2022/07/01 11:09:02;;;;;;;4.43;2.72;;;;;;;35.97;37.93;100010.78;5108075;28;20270;-66
2022/07/01 11:11:31;;;;;;;4.88;2.78;;;;;;;35.98;37.82;100005.25;5112609;28;20224;-66
2022/07/01 11:13:58;;;;;;;4.88;3.03;;;;;;;36.13;36.70;100011.13;5075572;28;20204;-66
2022/07/01 11:16:25;;;;;;;6.40;3.50;;;;;;;35.92;37.20;100015.75;5114488;28;20308;-66
2022/07/01 11:18:54;;;;;;;7.65;3.55;;;;;;;35.82;39.41;99991.44;5114746;28;20193;-66
2022/07/01 11:21:21;;;;;;;7.93;3.20;;;;;;;35.62;38.92;99978.91;5112172;28;20208;-67
2022/07/01 11:23:54;;;;;;;5.28;3.47;;;;;;;35.87;38.81;99988.31;5114912;28;20193;-66
2022/07/01 11:26:23;;;;;;;5.38;3.10;;;;;;;35.79;38.71;99992.56;5109653;28;20206;-67
2022/07/01 11:28:49;;;;;;;7.65;3.90;;;;;;;35.67;38.77;99996.41;5112670;28;20193;-66
2022/07/01 11:31:26;;;;;;;8.50;3.28;;;;;;;35.49;39.64;99968.34;5113919;28;20263;-67
2022/07/01 11:33:55;;;;;;;4.50;3.53;;;;;;;35.78;39.51;99998.13;5114258;28;20185;-67
2022/07/01 11:39:25;;;;;;;6.10;3.08;;;;;;;35.46;39.78;99986.66;5112092;28;20203;-67
2022/07/01 11:41:57;;;;;;;5.47;3.20;;;;;;;35.78;39.30;99980.06;5075627;28;20201;-67
2022/07/01 11:44:34;;;;;;;7.03;3.10;;;;;;;36.03;37.78;99977.84;5111688;28;20712;-68
2022/07/01 11:47:02;;;;;;;3.63;3.03;;;;;;;36.24;37.24;99965.06;5111079;28;20196;-67